sensor_id;sensor_type;location;lat;lon;timestamp;P1;durP1;ratioP1;P2;durP2;ratioP2
19651;SDS011;9974;52.146;14.668;2023-08-17T00:01:47;0.30;;;0.30;;
19651;SDS011;9974;52.146;14.668;2023-08-17T00:04:12;1.48;;;0.90;;
19651;SDS011;9974;52.146;14.668;2023-08-17T00:06:38;0.20;;;0.20;;
19651;SDS011;9974;52.146;14.668;2023-08-17T00:09:04;0.85;;;0.35;;
19651;SDS011;9974;52.146;14.668;2023-08-17T00:11:32;0.50;;;0.38;;
19651;SDS011;9974;52.146;14.668;2023-08-17T00:13:58;0.52;;;0.40;;
19651;SDS011;9974;52.146;14.668;2023-08-17T00:16:24;0.80;;;0.70;;
19651;SDS011;9974;52.146;14.668;2023-08-17T00:18:50;0.40;;;0.40;;
19651;SDS011;9974;52.146;14.668;2023-08-17T00:21:16;0.20;;;0.20;;
19651;SDS011;9974;52.146;14.668;2023-08-17T00:23:42;0.68;;;0.43;;
19651;SDS011;9974;52.146;14.668;2023-08-17T00:26:08;0.47;;;0.20;;
19651;SDS011;9974;52.146;14.668;2023-08-17T00:28:34;0.10;;;0.10;;
19651;SDS011;9974;52.146;14.668;2023-08-17T00:31:00;0.40;;;0.40;;
19651;SDS011;9974;52.146;14.668;2023-08-17T00:33:26;0.30;;;0.25;;
19651;SDS011;9974;52.146;14.668;2023-08-17T00:35:52;0.20;;;0.20;;
19651;SDS011;9974;52.146;14.668;2023-08-17T00:38:18;0.00;;;0.00;;
19651;SDS011;9974;52.146;14.668;2023-08-17T00:40:43;0.65;;;0.40;;
19651;SDS011;9974;52.146;14.668;2023-08-17T00:43:09;0.20;;;0.10;;
19651;SDS011;9974;52.146;14.668;2023-08-17T00:45:35;0.10;;;0.10;;
19651;SDS011;9974;52.146;14.668;2023-08-17T00:48:01;0.43;;;0.43;;
19651;SDS011;9974;52.146;14.668;2023-08-17T00:50:30;0.65;;;0.63;;
19651;SDS011;9974;52.146;14.668;2023-08-17T00:52:56;0.40;;;0.38;;
19651;SDS011;9974;52.146;14.668;2023-08-17T00:55:22;0.95;;;0.68;;
19651;SDS011;9974;52.146;14.668;2023-08-17T00:57:48;0.22;;;0.22;;
19651;SDS011;9974;52.146;14.668;2023-08-17T01:00:14;0.32;;;0.32;;
19651;SDS011;9974;52.146;14.668;2023-08-17T01:02:40;0.20;;;0.20;;
19651;SDS011;9974;52.146;14.668;2023-08-17T01:05:06;0.30;;;0.30;;
19651;SDS011;9974;52.146;14.668;2023-08-17T01:07:33;0.38;;;0.38;;
19651;SDS011;9974;52.146;14.668;2023-08-17T01:09:59;0.20;;;0.20;;
19651;SDS011;9974;52.146;14.668;2023-08-17T01:12:30;0.15;;;0.15;;
19651;SDS011;9974;52.146;14.668;2023-08-17T01:15:06;0.38;;;0.32;;
19651;SDS011;9974;52.146;14.668;2023-08-17T01:20:48;0.20;;;0.20;;
19651;SDS011;9974;52.146;14.668;2023-08-17T01:23:15;0.50;;;0.50;;
19651;SDS011;9974;52.146;14.668;2023-08-17T01:25:40;0.32;;;0.20;;
19651;SDS011;9974;52.146;14.668;2023-08-17T01:28:06;1.55;;;0.30;;
19651;SDS011;9974;52.146;14.668;2023-08-17T01:30:33;0.08;;;0.08;;
19651;SDS011;9974;52.146;14.668;2023-08-17T01:33:09;0.20;;;0.20;;
19651;SDS011;9974;52.146;14.668;2023-08-17T01:35:46;0.82;;;0.57;;
19651;SDS011;9974;52.146;14.668;2023-08-17T01:38:29;0.40;;;0.40;;
19651;SDS011;9974;52.146;14.668;2023-08-17T01:40:57;0.10;;;0.10;;
19651;SDS011;9974;52.146;14.668;2023-08-17T01:43:26;0.20;;;0.20;;
19651;SDS011;9974;52.146;14.668;2023-08-17T01:45:53;0.38;;;0.30;;
19651;SDS011;9974;52.146;14.668;2023-08-17T01:48:19;0.30;;;0.30;;
19651;SDS011;9974;52.146;14.668;2023-08-17T01:50:45;0.17;;;0.17;;
19651;SDS011;9974;52.146;14.668;2023-08-17T01:53:10;0.32;;;0.32;;
19651;SDS011;9974;52.146;14.668;2023-08-17T01:55:36;0.20;;;0.20;;
19651;SDS011;9974;52.146;14.668;2023-08-17T01:58:02;4.75;;;1.40;;
19651;SDS011;9974;52.146;14.668;2023-08-17T02:00:28;0.28;;;0.17;;
19651;SDS011;9974;52.146;14.668;2023-08-17T02:02:54;0.10;;;0.10;;
19651;SDS011;9974;52.146;14.668;2023-08-17T02:05:20;0.17;;;0.17;;
19651;SDS011;9974;52.146;14.668;2023-08-17T02:07:45;1.52;;;0.73;;
19651;SDS011;9974;52.146;14.668;2023-08-17T02:10:11;0.10;;;0.10;;
19651;SDS011;9974;52.146;14.668;2023-08-17T02:12:37;0.63;;;0.60;;
19651;SDS011;9974;52.146;14.668;2023-08-17T02:15:02;0.13;;;0.13;;
19651;SDS011;9974;52.146;14.668;2023-08-17T02:17:28;0.20;;;0.20;;
19651;SDS011;9974;52.146;14.668;2023-08-17T02:19:54;0.20;;;0.20;;
19651;SDS011;9974;52.146;14.668;2023-08-17T02:22:20;0.20;;;0.20;;
19651;SDS011;9974;52.146;14.668;2023-08-17T02:24:45;2.25;;;1.27;;
19651;SDS011;9974;52.146;14.668;2023-08-17T02:27:11;0.30;;;0.30;;
19651;SDS011;9974;52.146;14.668;2023-08-17T02:29:37;0.10;;;0.10;;
19651;SDS011;9974;52.146;14.668;2023-08-17T02:32:04;0.20;;;0.20;;
19651;SDS011;9974;52.146;14.668;2023-08-17T02:34:30;0.25;;;0.25;;
19651;SDS011;9974;52.146;14.668;2023-08-17T02:36:55;1.00;;;0.60;;
19651;SDS011;9974;52.146;14.668;2023-08-17T02:39:21;0.38;;;0.35;;
19651;SDS011;9974;52.146;14.668;2023-08-17T02:41:47;0.10;;;0.10;;
19651;SDS011;9974;52.146;14.668;2023-08-17T02:44:14;0.40;;;0.40;;
19651;SDS011;9974;52.146;14.668;2023-08-17T02:46:40;0.60;;;0.30;;
19651;SDS011;9974;52.146;14.668;2023-08-17T02:49:06;0.25;;;0.25;;
19651;SDS011;9974;52.146;14.668;2023-08-17T02:51:31;0.20;;;0.20;;
19651;SDS011;9974;52.146;14.668;2023-08-17T02:53:57;0.75;;;0.47;;
19651;SDS011;9974;52.146;14.668;2023-08-17T02:56:23;0.15;;;0.15;;
19651;SDS011;9974;52.146;14.668;2023-08-17T02:58:48;0.10;;;0.10;;
19651;SDS011;9974;52.146;14.668;2023-08-17T03:01:14;0.03;;;0.03;;
19651;SDS011;9974;52.146;14.668;2023-08-17T03:03:40;0.35;;;0.35;;
19651;SDS011;9974;52.146;14.668;2023-08-17T03:06:06;2.63;;;0.70;;
19651;SDS011;9974;52.146;14.668;2023-08-17T03:08:32;0.55;;;0.28;;
19651;SDS011;9974;52.146;14.668;2023-08-17T03:10:58;1.35;;;0.50;;
19651;SDS011;9974;52.146;14.668;2023-08-17T03:13:24;0.65;;;0.50;;
19651;SDS011;9974;52.146;14.668;2023-08-17T03:15:49;0.15;;;0.15;;
19651;SDS011;9974;52.146;14.668;2023-08-17T03:18:15;0.10;;;0.10;;
19651;SDS011;9974;52.146;14.668;2023-08-17T03:20:41;0.65;;;0.32;;
19651;SDS011;9974;52.146;14.668;2023-08-17T03:23:07;0.28;;;0.28;;
19651;SDS011;9974;52.146;14.668;2023-08-17T03:25:33;0.20;;;0.20;;
19651;SDS011;9974;52.146;14.668;2023-08-17T03:28:00;0.22;;;0.22;;
19651;SDS011;9974;52.146;14.668;2023-08-17T03:30:26;0.30;;;0.30;;
19651;SDS011;9974;52.146;14.668;2023-08-17T03:32:51;0.38;;;0.30;;
19651;SDS011;9974;52.146;14.668;2023-08-17T03:35:17;0.30;;;0.30;;
19651;SDS011;9974;52.146;14.668;2023-08-17T03:37:43;0.10;;;0.10;;
19651;SDS011;9974;52.146;14.668;2023-08-17T03:40:10;0.20;;;0.20;;
19651;SDS011;9974;52.146;14.668;2023-08-17T03:42:35;0.35;;;0.35;;
19651;SDS011;9974;52.146;14.668;2023-08-17T03:45:01;0.63;;;0.45;;
19651;SDS011;9974;52.146;14.668;2023-08-17T03:47:28;0.30;;;0.30;;
19651;SDS011;9974;52.146;14.668;2023-08-17T03:49:53;0.30;;;0.30;;
19651;SDS011;9974;52.146;14.668;2023-08-17T03:52:19;0.30;;;0.30;;
19651;SDS011;9974;52.146;14.668;2023-08-17T03:54:45;0.77;;;0.30;;
19651;SDS011;9974;52.146;14.668;2023-08-17T03:57:11;0.32;;;0.32;;
19651;SDS011;9974;52.146;14.668;2023-08-17T03:59:37;0.43;;;0.43;;
19651;SDS011;9974;52.146;14.668;2023-08-17T04:02:03;0.70;;;0.70;;
19651;SDS011;9974;52.146;14.668;2023-08-17T04:04:29;0.22;;;0.22;;
19651;SDS011;9974;52.146;14.668;2023-08-17T04:06:54;0.93;;;0.35;;
19651;SDS011;9974;52.146;14.668;2023-08-17T04:09:20;0.20;;;0.20;;
19651;SDS011;9974;52.146;14.668;2023-08-17T04:11:45;0.30;;;0.30;;
19651;SDS011;9974;52.146;14.668;2023-08-17T04:14:12;0.20;;;0.20;;
19651;SDS011;9974;52.146;14.668;2023-08-17T04:16:38;0.68;;;0.57;;
19651;SDS011;9974;52.146;14.668;2023-08-17T04:19:04;0.10;;;0.10;;
19651;SDS011;9974;52.146;14.668;2023-08-17T04:21:30;0.40;;;0.40;;
19651;SDS011;9974;52.146;14.668;2023-08-17T04:23:55;0.50;;;0.50;;
19651;SDS011;9974;52.146;14.668;2023-08-17T04:26:21;0.30;;;0.30;;
19651;SDS011;9974;52.146;14.668;2023-08-17T04:28:47;0.80;;;0.60;;
19651;SDS011;9974;52.146;14.668;2023-08-17T04:31:12;0.30;;;0.30;;
19651;SDS011;9974;52.146;14.668;2023-08-17T04:33:39;0.82;;;0.57;;
19651;SDS011;9974;52.146;14.668;2023-08-17T04:36:05;0.32;;;0.32;;
19651;SDS011;9974;52.146;14.668;2023-08-17T04:38:31;1.02;;;0.70;;
19651;SDS011;9974;52.146;14.668;2023-08-17T04:40:57;0.70;;;0.40;;
19651;SDS011;9974;52.146;14.668;2023-08-17T04:43:23;2.90;;;1.35;;
19651;SDS011;9974;52.146;14.668;2023-08-17T04:45:49;0.52;;;0.52;;
19651;SDS011;9974;52.146;14.668;2023-08-17T04:48:14;0.40;;;0.40;;
19651;SDS011;9974;52.146;14.668;2023-08-17T04:50:40;1.48;;;0.82;;
19651;SDS011;9974;52.146;14.668;2023-08-17T04:53:06;0.47;;;0.47;;
19651;SDS011;9974;52.146;14.668;2023-08-17T04:55:31;0.40;;;0.30;;
19651;SDS011;9974;52.146;14.668;2023-08-17T04:57:57;0.32;;;0.32;;
19651;SDS011;9974;52.146;14.668;2023-08-17T05:00:23;0.30;;;0.30;;
19651;SDS011;9974;52.146;14.668;2023-08-17T05:02:52;0.60;;;0.50;;
19651;SDS011;9974;52.146;14.668;2023-08-17T05:05:19;0.45;;;0.45;;
19651;SDS011;9974;52.146;14.668;2023-08-17T05:07:45;0.38;;;0.35;;
19651;SDS011;9974;52.146;14.668;2023-08-17T05:10:11;0.50;;;0.50;;
19651;SDS011;9974;52.146;14.668;2023-08-17T05:12:36;0.55;;;0.47;;
19651;SDS011;9974;52.146;14.668;2023-08-17T05:15:02;0.30;;;0.30;;
19651;SDS011;9974;52.146;14.668;2023-08-17T05:19:59;0.30;;;0.30;;
19651;SDS011;9974;52.146;14.668;2023-08-17T05:22:25;0.38;;;0.38;;
19651;SDS011;9974;52.146;14.668;2023-08-17T05:24:52;0.20;;;0.20;;
19651;SDS011;9974;52.146;14.668;2023-08-17T05:27:18;0.43;;;0.43;;
19651;SDS011;9974;52.146;14.668;2023-08-17T05:29:43;0.75;;;0.60;;
19651;SDS011;9974;52.146;14.668;2023-08-17T05:32:09;1.42;;;0.65;;
19651;SDS011;9974;52.146;14.668;2023-08-17T05:34:35;17.42;;;1.35;;
19651;SDS011;9974;52.146;14.668;2023-08-17T05:37:01;0.20;;;0.20;;
19651;SDS011;9974;52.146;14.668;2023-08-17T05:39:28;0.52;;;0.47;;
19651;SDS011;9974;52.146;14.668;2023-08-17T05:41:53;0.22;;;0.20;;
19651;SDS011;9974;52.146;14.668;2023-08-17T05:44:19;0.35;;;0.28;;
19651;SDS011;9974;52.146;14.668;2023-08-17T05:46:45;0.88;;;0.57;;
19651;SDS011;9974;52.146;14.668;2023-08-17T05:49:10;0.50;;;0.47;;
19651;SDS011;9974;52.146;14.668;2023-08-17T05:51:36;0.50;;;0.50;;
19651;SDS011;9974;52.146;14.668;2023-08-17T05:54:02;0.90;;;0.77;;
19651;SDS011;9974;52.146;14.668;2023-08-17T05:56:28;1.08;;;0.77;;
19651;SDS011;9974;52.146;14.668;2023-08-17T05:58:53;0.40;;;0.40;;
19651;SDS011;9974;52.146;14.668;2023-08-17T06:01:19;0.75;;;0.50;;
19651;SDS011;9974;52.146;14.668;2023-08-17T06:03:45;0.38;;;0.32;;
19651;SDS011;9974;52.146;14.668;2023-08-17T06:06:11;0.25;;;0.25;;
19651;SDS011;9974;52.146;14.668;2023-08-17T06:08:36;3.60;;;0.73;;
19651;SDS011;9974;52.146;14.668;2023-08-17T06:11:02;0.28;;;0.22;;
19651;SDS011;9974;52.146;14.668;2023-08-17T06:13:28;0.30;;;0.30;;
19651;SDS011;9974;52.146;14.668;2023-08-17T06:15:54;0.50;;;0.50;;
19651;SDS011;9974;52.146;14.668;2023-08-17T06:18:21;0.45;;;0.35;;
19651;SDS011;9974;52.146;14.668;2023-08-17T06:20:47;0.45;;;0.45;;
19651;SDS011;9974;52.146;14.668;2023-08-17T06:23:16;2.63;;;1.15;;
19651;SDS011;9974;52.146;14.668;2023-08-17T06:25:43;1.38;;;1.02;;
19651;SDS011;9974;52.146;14.668;2023-08-17T06:28:09;0.38;;;0.30;;
19651;SDS011;9974;52.146;14.668;2023-08-17T06:30:35;1.67;;;0.52;;
19651;SDS011;9974;52.146;14.668;2023-08-17T06:33:01;0.60;;;0.50;;
19651;SDS011;9974;52.146;14.668;2023-08-17T06:35:26;0.43;;;0.30;;
19651;SDS011;9974;52.146;14.668;2023-08-17T06:37:52;0.80;;;0.40;;
19651;SDS011;9974;52.146;14.668;2023-08-17T06:40:21;0.30;;;0.30;;
19651;SDS011;9974;52.146;14.668;2023-08-17T06:42:47;0.30;;;0.30;;
19651;SDS011;9974;52.146;14.668;2023-08-17T06:45:14;0.40;;;0.30;;
19651;SDS011;9974;52.146;14.668;2023-08-17T06:47:43;0.52;;;0.40;;
19651;SDS011;9974;52.146;14.668;2023-08-17T06:50:10;0.90;;;0.68;;
19651;SDS011;9974;52.146;14.668;2023-08-17T06:52:36;0.60;;;0.60;;
19651;SDS011;9974;52.146;14.668;2023-08-17T06:55:02;0.85;;;0.77;;
19651;SDS011;9974;52.146;14.668;2023-08-17T06:57:27;0.45;;;0.43;;
19651;SDS011;9974;52.146;14.668;2023-08-17T06:59:53;0.30;;;0.30;;
19651;SDS011;9974;52.146;14.668;2023-08-17T07:02:19;0.65;;;0.43;;
19651;SDS011;9974;52.146;14.668;2023-08-17T07:04:45;0.30;;;0.30;;
19651;SDS011;9974;52.146;14.668;2023-08-17T07:07:12;0.47;;;0.40;;
19651;SDS011;9974;52.146;14.668;2023-08-17T07:09:39;0.50;;;0.50;;
19651;SDS011;9974;52.146;14.668;2023-08-17T07:12:05;0.98;;;0.70;;
19651;SDS011;9974;52.146;14.668;2023-08-17T07:14:31;0.88;;;0.52;;
19651;SDS011;9974;52.146;14.668;2023-08-17T07:16:58;0.90;;;0.70;;
19651;SDS011;9974;52.146;14.668;2023-08-17T07:19:24;0.88;;;0.60;;
19651;SDS011;9974;52.146;14.668;2023-08-17T07:21:50;1.08;;;0.60;;
19651;SDS011;9974;52.146;14.668;2023-08-17T07:24:15;2.55;;;1.17;;
19651;SDS011;9974;52.146;14.668;2023-08-17T07:26:41;0.90;;;0.52;;
19651;SDS011;9974;52.146;14.668;2023-08-17T07:29:07;1.13;;;0.70;;
19651;SDS011;9974;52.146;14.668;2023-08-17T07:31:33;0.40;;;0.40;;
19651;SDS011;9974;52.146;14.668;2023-08-17T07:34:02;0.73;;;0.68;;
19651;SDS011;9974;52.146;14.668;2023-08-17T07:36:29;1.63;;;0.68;;
19651;SDS011;9974;52.146;14.668;2023-08-17T07:38:54;0.85;;;0.70;;
19651;SDS011;9974;52.146;14.668;2023-08-17T07:41:20;0.75;;;0.65;;
19651;SDS011;9974;52.146;14.668;2023-08-17T07:43:46;2.92;;;2.13;;
19651;SDS011;9974;52.146;14.668;2023-08-17T07:46:12;1.42;;;1.00;;
19651;SDS011;9974;52.146;14.668;2023-08-17T07:48:37;2.42;;;1.50;;
19651;SDS011;9974;52.146;14.668;2023-08-17T07:51:03;2.00;;;1.42;;
19651;SDS011;9974;52.146;14.668;2023-08-17T07:53:29;2.47;;;1.40;;
19651;SDS011;9974;52.146;14.668;2023-08-17T07:55:54;2.50;;;1.63;;
19651;SDS011;9974;52.146;14.668;2023-08-17T07:58:20;2.35;;;1.65;;
19651;SDS011;9974;52.146;14.668;2023-08-17T08:00:46;2.47;;;1.60;;
19651;SDS011;9974;52.146;14.668;2023-08-17T08:03:11;1.98;;;1.40;;
19651;SDS011;9974;52.146;14.668;2023-08-17T08:05:37;1.92;;;1.42;;
19651;SDS011;9974;52.146;14.668;2023-08-17T08:08:03;3.35;;;1.88;;
19651;SDS011;9974;52.146;14.668;2023-08-17T08:10:29;2.58;;;1.67;;
19651;SDS011;9974;52.146;14.668;2023-08-17T08:12:54;2.17;;;1.50;;
19651;SDS011;9974;52.146;14.668;2023-08-17T08:15:20;2.80;;;1.58;;
19651;SDS011;9974;52.146;14.668;2023-08-17T08:17:46;1.88;;;1.58;;
19651;SDS011;9974;52.146;14.668;2023-08-17T08:20:11;2.00;;;1.60;;
19651;SDS011;9974;52.146;14.668;2023-08-17T08:22:37;3.13;;;1.70;;
19651;SDS011;9974;52.146;14.668;2023-08-17T08:25:03;2.33;;;1.42;;
19651;SDS011;9974;52.146;14.668;2023-08-17T08:27:29;2.88;;;2.08;;
19651;SDS011;9974;52.146;14.668;2023-08-17T08:29:54;2.65;;;1.80;;
19651;SDS011;9974;52.146;14.668;2023-08-17T08:32:20;2.85;;;2.03;;
19651;SDS011;9974;52.146;14.668;2023-08-17T08:34:46;3.13;;;2.10;;
19651;SDS011;9974;52.146;14.668;2023-08-17T08:37:12;3.60;;;1.95;;
19651;SDS011;9974;52.146;14.668;2023-08-17T08:39:49;3.83;;;1.77;;
19651;SDS011;9974;52.146;14.668;2023-08-17T08:42:18;2.38;;;1.95;;
19651;SDS011;9974;52.146;14.668;2023-08-17T08:44:44;3.50;;;2.20;;
19651;SDS011;9974;52.146;14.668;2023-08-17T08:47:11;3.10;;;1.73;;
19651;SDS011;9974;52.146;14.668;2023-08-17T08:49:39;2.10;;;1.55;;
19651;SDS011;9974;52.146;14.668;2023-08-17T08:52:07;3.38;;;1.55;;
19651;SDS011;9974;52.146;14.668;2023-08-17T08:54:33;2.50;;;1.70;;
19651;SDS011;9974;52.146;14.668;2023-08-17T08:57:01;1.52;;;1.13;;
19651;SDS011;9974;52.146;14.668;2023-08-17T08:59:31;2.30;;;1.48;;
19651;SDS011;9974;52.146;14.668;2023-08-17T09:01:59;2.97;;;1.55;;
19651;SDS011;9974;52.146;14.668;2023-08-17T09:04:25;2.30;;;1.80;;
19651;SDS011;9974;52.146;14.668;2023-08-17T09:06:51;4.22;;;2.08;;
19651;SDS011;9974;52.146;14.668;2023-08-17T09:09:18;2.40;;;1.17;;
19651;SDS011;9974;52.146;14.668;2023-08-17T09:11:45;2.25;;;1.10;;
19651;SDS011;9974;52.146;14.668;2023-08-17T09:14:11;2.63;;;1.60;;
19651;SDS011;9974;52.146;14.668;2023-08-17T09:16:37;3.67;;;2.33;;
19651;SDS011;9974;52.146;14.668;2023-08-17T09:19:03;3.33;;;1.77;;
19651;SDS011;9974;52.146;14.668;2023-08-17T09:21:31;3.95;;;2.45;;
19651;SDS011;9974;52.146;14.668;2023-08-17T09:23:58;2.67;;;1.65;;
19651;SDS011;9974;52.146;14.668;2023-08-17T09:26:23;2.58;;;1.30;;
19651;SDS011;9974;52.146;14.668;2023-08-17T09:28:52;2.53;;;1.50;;
19651;SDS011;9974;52.146;14.668;2023-08-17T09:31:22;1.85;;;1.00;;
19651;SDS011;9974;52.146;14.668;2023-08-17T09:33:52;1.75;;;1.25;;
19651;SDS011;9974;52.146;14.668;2023-08-17T09:36:21;1.50;;;1.10;;
19651;SDS011;9974;52.146;14.668;2023-08-17T09:38:48;1.23;;;1.08;;
19651;SDS011;9974;52.146;14.668;2023-08-17T09:41:16;2.17;;;1.30;;
19651;SDS011;9974;52.146;14.668;2023-08-17T09:43:43;1.70;;;0.82;;
19651;SDS011;9974;52.146;14.668;2023-08-17T09:46:09;1.08;;;0.80;;
19651;SDS011;9974;52.146;14.668;2023-08-17T09:48:35;1.55;;;0.85;;
19651;SDS011;9974;52.146;14.668;2023-08-17T09:51:01;1.30;;;1.13;;
19651;SDS011;9974;52.146;14.668;2023-08-17T09:53:28;1.13;;;0.75;;
19651;SDS011;9974;52.146;14.668;2023-08-17T09:55:53;1.27;;;0.60;;
19651;SDS011;9974;52.146;14.668;2023-08-17T09:58:22;1.88;;;0.88;;
19651;SDS011;9974;52.146;14.668;2023-08-17T10:00:48;1.42;;;1.17;;
19651;SDS011;9974;52.146;14.668;2023-08-17T10:03:16;0.70;;;0.70;;
19651;SDS011;9974;52.146;14.668;2023-08-17T10:05:43;2.08;;;1.27;;
19651;SDS011;9974;52.146;14.668;2023-08-17T10:08:14;0.85;;;0.63;;
19651;SDS011;9974;52.146;14.668;2023-08-17T10:10:45;1.55;;;1.20;;
19651;SDS011;9974;52.146;14.668;2023-08-17T10:13:14;1.27;;;0.77;;
19651;SDS011;9974;52.146;14.668;2023-08-17T10:15:55;1.05;;;0.77;;
19651;SDS011;9974;52.146;14.668;2023-08-17T10:21:01;1.17;;;0.90;;
19651;SDS011;9974;52.146;14.668;2023-08-17T10:23:31;1.00;;;0.43;;
19651;SDS011;9974;52.146;14.668;2023-08-17T10:25:57;1.85;;;1.00;;
19651;SDS011;9974;52.146;14.668;2023-08-17T10:28:27;0.57;;;0.55;;
19651;SDS011;9974;52.146;14.668;2023-08-17T10:30:56;1.77;;;1.38;;
19651;SDS011;9974;52.146;14.668;2023-08-17T10:33:22;1.35;;;0.90;;
19651;SDS011;9974;52.146;14.668;2023-08-17T10:35:51;1.38;;;1.02;;
19651;SDS011;9974;52.146;14.668;2023-08-17T10:38:17;1.17;;;0.95;;
19651;SDS011;9974;52.146;14.668;2023-08-17T10:40:43;1.10;;;0.70;;
19651;SDS011;9974;52.146;14.668;2023-08-17T10:43:09;1.50;;;1.08;;
19651;SDS011;9974;52.146;14.668;2023-08-17T10:45:36;2.58;;;1.40;;
19651;SDS011;9974;52.146;14.668;2023-08-17T10:50:32;1.70;;;1.17;;
19651;SDS011;9974;52.146;14.668;2023-08-17T10:52:59;1.50;;;0.93;;
19651;SDS011;9974;52.146;14.668;2023-08-17T10:55:42;2.42;;;1.42;;
19651;SDS011;9974;52.146;14.668;2023-08-17T10:58:10;2.33;;;1.23;;
19651;SDS011;9974;52.146;14.668;2023-08-17T11:00:37;3.22;;;1.55;;
19651;SDS011;9974;52.146;14.668;2023-08-17T11:03:08;2.40;;;1.95;;
19651;SDS011;9974;52.146;14.668;2023-08-17T11:08:20;1.75;;;1.30;;
19651;SDS011;9974;52.146;14.668;2023-08-17T11:11:06;2.83;;;2.03;;
19651;SDS011;9974;52.146;14.668;2023-08-17T11:13:41;297.52;;;267.13;;
19651;SDS011;9974;52.146;14.668;2023-08-17T11:16:09;261.67;;;235.38;;
19651;SDS011;9974;52.146;14.668;2023-08-17T11:18:37;370.63;;;335.67;;
19651;SDS011;9974;52.146;14.668;2023-08-17T11:21:03;196.52;;;178.45;;
19651;SDS011;9974;52.146;14.668;2023-08-17T11:23:31;106.28;;;95.10;;
19651;SDS011;9974;52.146;14.668;2023-08-17T11:25:59;364.92;;;330.77;;
19651;SDS011;9974;52.146;14.668;2023-08-17T11:28:26;229.13;;;210.27;;
19651;SDS011;9974;52.146;14.668;2023-08-17T11:31:01;2.28;;;1.48;;
19651;SDS011;9974;52.146;14.668;2023-08-17T11:33:29;1.70;;;1.55;;
19651;SDS011;9974;52.146;14.668;2023-08-17T11:35:56;2.65;;;1.85;;
19651;SDS011;9974;52.146;14.668;2023-08-17T11:38:23;83.38;;;75.55;;
19651;SDS011;9974;52.146;14.668;2023-08-17T11:40:50;2.13;;;1.50;;
19651;SDS011;9974;52.146;14.668;2023-08-17T11:43:16;3.40;;;2.13;;
19651;SDS011;9974;52.146;14.668;2023-08-17T11:45:43;2.40;;;1.55;;
19651;SDS011;9974;52.146;14.668;2023-08-17T11:48:08;2.35;;;1.40;;
19651;SDS011;9974;52.146;14.668;2023-08-17T11:50:34;3.05;;;1.80;;
19651;SDS011;9974;52.146;14.668;2023-08-17T11:53:00;2.90;;;1.70;;
19651;SDS011;9974;52.146;14.668;2023-08-17T11:55:26;4.85;;;1.48;;
19651;SDS011;9974;52.146;14.668;2023-08-17T11:57:52;2.55;;;1.60;;
19651;SDS011;9974;52.146;14.668;2023-08-17T12:00:19;2.50;;;1.63;;
19651;SDS011;9974;52.146;14.668;2023-08-17T12:02:47;1.38;;;0.98;;
19651;SDS011;9974;52.146;14.668;2023-08-17T12:05:18;2.42;;;1.55;;
19651;SDS011;9974;52.146;14.668;2023-08-17T12:07:48;1.83;;;1.52;;
19651;SDS011;9974;52.146;14.668;2023-08-17T12:10:14;1.77;;;1.35;;
19651;SDS011;9974;52.146;14.668;2023-08-17T12:12:40;1.50;;;1.08;;
19651;SDS011;9974;52.146;14.668;2023-08-17T12:15:06;2.60;;;1.50;;
19651;SDS011;9974;52.146;14.668;2023-08-17T12:17:32;1.65;;;1.35;;
19651;SDS011;9974;52.146;14.668;2023-08-17T12:19:58;3.85;;;1.30;;
19651;SDS011;9974;52.146;14.668;2023-08-17T12:22:25;1.45;;;1.17;;
19651;SDS011;9974;52.146;14.668;2023-08-17T12:24:51;1.92;;;1.38;;
19651;SDS011;9974;52.146;14.668;2023-08-17T12:27:17;2.13;;;1.35;;
19651;SDS011;9974;52.146;14.668;2023-08-17T12:29:46;2.00;;;1.50;;
19651;SDS011;9974;52.146;14.668;2023-08-17T12:32:16;2.35;;;1.60;;
19651;SDS011;9974;52.146;14.668;2023-08-17T12:34:44;3.28;;;2.03;;
19651;SDS011;9974;52.146;14.668;2023-08-17T12:37:10;4.03;;;1.40;;
19651;SDS011;9974;52.146;14.668;2023-08-17T12:39:37;2.70;;;1.20;;
19651;SDS011;9974;52.146;14.668;2023-08-17T12:42:03;2.03;;;1.63;;
19651;SDS011;9974;52.146;14.668;2023-08-17T12:44:29;2.13;;;1.63;;
19651;SDS011;9974;52.146;14.668;2023-08-17T12:46:55;3.08;;;1.50;;
19651;SDS011;9974;52.146;14.668;2023-08-17T12:49:21;2.38;;;1.33;;
19651;SDS011;9974;52.146;14.668;2023-08-17T12:51:48;1.15;;;1.05;;
19651;SDS011;9974;52.146;14.668;2023-08-17T12:54:14;3.78;;;1.33;;
19651;SDS011;9974;52.146;14.668;2023-08-17T12:56:39;1.27;;;1.02;;
19651;SDS011;9974;52.146;14.668;2023-08-17T12:59:05;2.75;;;1.85;;
19651;SDS011;9974;52.146;14.668;2023-08-17T13:01:31;1.63;;;1.35;;
19651;SDS011;9974;52.146;14.668;2023-08-17T13:03:56;1.33;;;1.13;;
19651;SDS011;9974;52.146;14.668;2023-08-17T13:06:22;2.63;;;1.50;;
19651;SDS011;9974;52.146;14.668;2023-08-17T13:08:48;1.75;;;1.45;;
19651;SDS011;9974;52.146;14.668;2023-08-17T13:11:14;2.28;;;1.45;;
19651;SDS011;9974;52.146;14.668;2023-08-17T13:13:39;2.50;;;1.67;;
19651;SDS011;9974;52.146;14.668;2023-08-17T13:16:05;1.75;;;1.30;;
19651;SDS011;9974;52.146;14.668;2023-08-17T13:18:31;1.90;;;1.38;;
19651;SDS011;9974;52.146;14.668;2023-08-17T13:20:56;2.35;;;1.42;;
19651;SDS011;9974;52.146;14.668;2023-08-17T13:23:22;4.28;;;1.55;;
19651;SDS011;9974;52.146;14.668;2023-08-17T13:25:48;2.70;;;1.75;;
19651;SDS011;9974;52.146;14.668;2023-08-17T13:28:14;2.00;;;1.42;;
19651;SDS011;9974;52.146;14.668;2023-08-17T13:30:39;2.33;;;1.55;;
19651;SDS011;9974;52.146;14.668;2023-08-17T13:33:05;2.47;;;1.80;;
19651;SDS011;9974;52.146;14.668;2023-08-17T13:35:32;3.30;;;1.85;;
19651;SDS011;9974;52.146;14.668;2023-08-17T13:37:58;2.63;;;1.95;;
19651;SDS011;9974;52.146;14.668;2023-08-17T13:40:24;3.22;;;2.35;;
19651;SDS011;9974;52.146;14.668;2023-08-17T13:42:50;2.33;;;1.75;;
19651;SDS011;9974;52.146;14.668;2023-08-17T13:45:16;1.80;;;1.52;;
19651;SDS011;9974;52.146;14.668;2023-08-17T13:47:42;2.53;;;2.15;;
19651;SDS011;9974;52.146;14.668;2023-08-17T13:50:08;2.95;;;2.30;;
19651;SDS011;9974;52.146;14.668;2023-08-17T13:52:34;2.47;;;2.03;;
19651;SDS011;9974;52.146;14.668;2023-08-17T13:54:59;2.88;;;1.98;;
19651;SDS011;9974;52.146;14.668;2023-08-17T13:57:25;3.75;;;2.42;;
19651;SDS011;9974;52.146;14.668;2023-08-17T13:59:51;2.88;;;2.28;;
19651;SDS011;9974;52.146;14.668;2023-08-17T14:02:18;5.55;;;2.67;;
19651;SDS011;9974;52.146;14.668;2023-08-17T14:04:43;4.80;;;2.40;;
19651;SDS011;9974;52.146;14.668;2023-08-17T14:07:09;3.35;;;2.40;;
19651;SDS011;9974;52.146;14.668;2023-08-17T14:09:35;3.33;;;2.03;;
19651;SDS011;9974;52.146;14.668;2023-08-17T14:12:00;2.17;;;1.70;;
19651;SDS011;9974;52.146;14.668;2023-08-17T14:14:27;4.13;;;2.40;;
19651;SDS011;9974;52.146;14.668;2023-08-17T14:16:53;2.95;;;2.20;;
19651;SDS011;9974;52.146;14.668;2023-08-17T14:19:19;3.63;;;2.53;;
19651;SDS011;9974;52.146;14.668;2023-08-17T14:21:44;2.53;;;1.63;;
19651;SDS011;9974;52.146;14.668;2023-08-17T14:24:10;2.90;;;1.75;;
19651;SDS011;9974;52.146;14.668;2023-08-17T14:26:36;4.78;;;2.10;;
19651;SDS011;9974;52.146;14.668;2023-08-17T14:29:01;5.25;;;2.28;;
19651;SDS011;9974;52.146;14.668;2023-08-17T14:31:27;3.53;;;2.28;;
19651;SDS011;9974;52.146;14.668;2023-08-17T14:33:53;2.65;;;1.73;;
19651;SDS011;9974;52.146;14.668;2023-08-17T14:36:19;3.58;;;1.83;;
19651;SDS011;9974;52.146;14.668;2023-08-17T14:38:45;3.35;;;2.20;;
19651;SDS011;9974;52.146;14.668;2023-08-17T14:41:11;2.95;;;2.17;;
19651;SDS011;9974;52.146;14.668;2023-08-17T14:43:37;2.95;;;2.05;;
19651;SDS011;9974;52.146;14.668;2023-08-17T14:46:03;6.90;;;3.33;;
19651;SDS011;9974;52.146;14.668;2023-08-17T14:48:28;5.35;;;3.78;;
19651;SDS011;9974;52.146;14.668;2023-08-17T14:50:54;3.85;;;2.50;;
19651;SDS011;9974;52.146;14.668;2023-08-17T14:53:20;3.05;;;2.03;;
19651;SDS011;9974;52.146;14.668;2023-08-17T14:55:46;2.45;;;1.88;;